sensor_id;sensor_type;location;lat;lon;timestamp;P1;durP1;ratioP1;P2;durP2;ratioP2
20397;SDS011;10358;49.590;11.030;2022-10-31T00:01:15;12.90;;;5.70;;
20397;SDS011;10358;49.590;11.030;2022-10-31T00:03:55;15.03;;;4.80;;
20397;SDS011;10358;49.590;11.030;2022-10-31T00:06:21;12.57;;;5.10;;
20397;SDS011;10358;49.590;11.030;2022-10-31T00:08:51;14.70;;;4.90;;
20397;SDS011;10358;49.590;11.030;2022-10-31T00:11:19;15.47;;;4.80;;
20397;SDS011;10358;49.590;11.030;2022-10-31T00:13:45;16.43;;;4.83;;
20397;SDS011;10358;49.590;11.030;2022-10-31T00:16:14;15.73;;;5.27;;
20397;SDS011;10358;49.590;11.030;2022-10-31T00:18:40;15.37;;;5.37;;
20397;SDS011;10358;49.590;11.030;2022-10-31T00:21:06;13.80;;;5.43;;
20397;SDS011;10358;49.590;11.030;2022-10-31T00:23:31;16.30;;;5.50;;
20397;SDS011;10358;49.590;11.030;2022-10-31T00:26:00;17.57;;;5.57;;
20397;SDS011;10358;49.590;11.030;2022-10-31T00:28:27;14.23;;;6.00;;
20397;SDS011;10358;49.590;11.030;2022-10-31T00:30:57;14.97;;;5.30;;
20397;SDS011;10358;49.590;11.030;2022-10-31T00:33:27;12.57;;;5.23;;
20397;SDS011;10358;49.590;11.030;2022-10-31T00:35:53;14.40;;;5.30;;
20397;SDS011;10358;49.590;11.030;2022-10-31T00:38:19;14.03;;;5.53;;
20397;SDS011;10358;49.590;11.030;2022-10-31T00:40:44;12.87;;;4.90;;
20397;SDS011;10358;49.590;11.030;2022-10-31T00:43:10;16.97;;;5.30;;
20397;SDS011;10358;49.590;11.030;2022-10-31T00:45:35;17.70;;;4.77;;
20397;SDS011;10358;49.590;11.030;2022-10-31T00:48:01;10.27;;;5.20;;
20397;SDS011;10358;49.590;11.030;2022-10-31T00:50:27;12.53;;;4.90;;
20397;SDS011;10358;49.590;11.030;2022-10-31T00:52:52;17.73;;;5.13;;
20397;SDS011;10358;49.590;11.030;2022-10-31T00:55:18;12.93;;;5.00;;
20397;SDS011;10358;49.590;11.030;2022-10-31T00:57:45;10.60;;;4.70;;
20397;SDS011;10358;49.590;11.030;2022-10-31T01:00:12;12.93;;;4.87;;
20397;SDS011;10358;49.590;11.030;2022-10-31T01:02:37;21.97;;;5.83;;
20397;SDS011;10358;49.590;11.030;2022-10-31T01:05:03;14.00;;;4.77;;
20397;SDS011;10358;49.590;11.030;2022-10-31T01:07:29;15.67;;;5.63;;
20397;SDS011;10358;49.590;11.030;2022-10-31T01:09:54;11.10;;;4.93;;
20397;SDS011;10358;49.590;11.030;2022-10-31T01:12:20;10.33;;;5.33;;
20397;SDS011;10358;49.590;11.030;2022-10-31T01:14:45;10.97;;;5.20;;
20397;SDS011;10358;49.590;11.030;2022-10-31T01:17:12;13.07;;;4.90;;
20397;SDS011;10358;49.590;11.030;2022-10-31T01:19:38;18.83;;;5.63;;
20397;SDS011;10358;49.590;11.030;2022-10-31T01:22:04;17.63;;;5.70;;
20397;SDS011;10358;49.590;11.030;2022-10-31T01:24:30;14.37;;;5.03;;
20397;SDS011;10358;49.590;11.030;2022-10-31T01:26:55;17.13;;;5.70;;
20397;SDS011;10358;49.590;11.030;2022-10-31T01:29:21;15.27;;;7.10;;
20397;SDS011;10358;49.590;11.030;2022-10-31T01:31:46;13.17;;;5.53;;
20397;SDS011;10358;49.590;11.030;2022-10-31T01:34:13;19.47;;;7.13;;
20397;SDS011;10358;49.590;11.030;2022-10-31T01:36:40;25.97;;;6.80;;
20397;SDS011;10358;49.590;11.030;2022-10-31T01:39:10;16.93;;;6.33;;
20397;SDS011;10358;49.590;11.030;2022-10-31T01:41:38;14.97;;;5.93;;
20397;SDS011;10358;49.590;11.030;2022-10-31T01:49:23;18.17;;;6.47;;
20397;SDS011;10358;49.590;11.030;2022-10-31T01:52:06;16.33;;;6.60;;
20397;SDS011;10358;49.590;11.030;2022-10-31T01:54:43;16.33;;;7.20;;
20397;SDS011;10358;49.590;11.030;2022-10-31T01:57:15;17.17;;;6.87;;
20397;SDS011;10358;49.590;11.030;2022-10-31T01:59:46;17.37;;;6.67;;
20397;SDS011;10358;49.590;11.030;2022-10-31T02:02:15;14.67;;;6.20;;
20397;SDS011;10358;49.590;11.030;2022-10-31T02:04:42;18.93;;;6.60;;
20397;SDS011;10358;49.590;11.030;2022-10-31T02:07:10;18.57;;;6.80;;
20397;SDS011;10358;49.590;11.030;2022-10-31T02:09:39;11.90;;;6.40;;
20397;SDS011;10358;49.590;11.030;2022-10-31T02:12:06;18.77;;;6.57;;
20397;SDS011;10358;49.590;11.030;2022-10-31T02:14:34;25.67;;;7.03;;
20397;SDS011;10358;49.590;11.030;2022-10-31T02:17:01;16.73;;;7.10;;
20397;SDS011;10358;49.590;11.030;2022-10-31T02:19:31;19.33;;;6.87;;
20397;SDS011;10358;49.590;11.030;2022-10-31T02:22:16;26.13;;;7.97;;
20397;SDS011;10358;49.590;11.030;2022-10-31T02:25:07;19.03;;;8.20;;
20397;SDS011;10358;49.590;11.030;2022-10-31T02:33:51;21.67;;;10.07;;
20397;SDS011;10358;49.590;11.030;2022-10-31T02:41:52;40.13;;;10.37;;
20397;SDS011;10358;49.590;11.030;2022-10-31T02:47:22;24.73;;;8.63;;
20397;SDS011;10358;49.590;11.030;2022-10-31T02:50:53;23.40;;;8.50;;
20397;SDS011;10358;49.590;11.030;2022-10-31T02:52:52;23.40;;;8.87;;
20397;SDS011;10358;49.590;11.030;2022-10-31T02:57:53;22.93;;;8.07;;
20397;SDS011;10358;49.590;11.030;2022-10-31T03:07:03;19.60;;;6.67;;
20397;SDS011;10358;49.590;11.030;2022-10-31T03:09:46;23.17;;;8.23;;
20397;SDS011;10358;49.590;11.030;2022-10-31T03:12:36;24.10;;;8.90;;
20397;SDS011;10358;49.590;11.030;2022-10-31T03:15:12;25.27;;;7.70;;
20397;SDS011;10358;49.590;11.030;2022-10-31T03:18:03;20.10;;;7.20;;
20397;SDS011;10358;49.590;11.030;2022-10-31T03:20:30;24.23;;;7.33;;
20397;SDS011;10358;49.590;11.030;2022-10-31T03:23:24;24.47;;;7.50;;
20397;SDS011;10358;49.590;11.030;2022-10-31T03:25:51;44.37;;;7.63;;
20397;SDS011;10358;49.590;11.030;2022-10-31T03:28:21;20.20;;;7.30;;
20397;SDS011;10358;49.590;11.030;2022-10-31T03:30:53;17.47;;;7.47;;
20397;SDS011;10358;49.590;11.030;2022-10-31T03:33:22;20.33;;;7.37;;
20397;SDS011;10358;49.590;11.030;2022-10-31T03:35:52;21.37;;;7.80;;
20397;SDS011;10358;49.590;11.030;2022-10-31T03:38:20;19.20;;;8.00;;
20397;SDS011;10358;49.590;11.030;2022-10-31T03:40:47;19.63;;;8.30;;
20397;SDS011;10358;49.590;11.030;2022-10-31T03:43:17;17.73;;;7.57;;
20397;SDS011;10358;49.590;11.030;2022-10-31T03:45:47;17.80;;;7.13;;
20397;SDS011;10358;49.590;11.030;2022-10-31T03:48:13;23.63;;;8.10;;
20397;SDS011;10358;49.590;11.030;2022-10-31T03:50:45;14.83;;;7.27;;
20397;SDS011;10358;49.590;11.030;2022-10-31T03:53:31;17.07;;;7.37;;
20397;SDS011;10358;49.590;11.030;2022-10-31T03:56:01;17.40;;;7.43;;
20397;SDS011;10358;49.590;11.030;2022-10-31T03:58:34;52.83;;;7.23;;
20397;SDS011;10358;49.590;11.030;2022-10-31T04:01:04;14.25;;;7.10;;
20397;SDS011;10358;49.590;11.030;2022-10-31T04:03:34;19.20;;;6.80;;
20397;SDS011;10358;49.590;11.030;2022-10-31T04:06:04;15.47;;;6.80;;
20397;SDS011;10358;49.590;11.030;2022-10-31T04:08:33;15.23;;;6.30;;
20397;SDS011;10358;49.590;11.030;2022-10-31T04:11:05;15.07;;;6.27;;
20397;SDS011;10358;49.590;11.030;2022-10-31T04:13:33;15.17;;;6.30;;
20397;SDS011;10358;49.590;11.030;2022-10-31T04:16:02;12.00;;;5.97;;
20397;SDS011;10358;49.590;11.030;2022-10-31T04:18:28;11.60;;;6.50;;
20397;SDS011;10358;49.590;11.030;2022-10-31T04:21:04;9.63;;;5.80;;
20397;SDS011;10358;49.590;11.030;2022-10-31T04:23:32;12.67;;;6.13;;
20397;SDS011;10358;49.590;11.030;2022-10-31T04:25:59;12.03;;;6.20;;
20397;SDS011;10358;49.590;11.030;2022-10-31T04:28:24;14.13;;;5.87;;
20397;SDS011;10358;49.590;11.030;2022-10-31T04:30:50;11.07;;;5.87;;
20397;SDS011;10358;49.590;11.030;2022-10-31T04:33:16;11.17;;;6.30;;
20397;SDS011;10358;49.590;11.030;2022-10-31T04:35:42;10.77;;;5.57;;
20397;SDS011;10358;49.590;11.030;2022-10-31T04:38:07;17.67;;;6.77;;
20397;SDS011;10358;49.590;11.030;2022-10-31T04:40:33;12.47;;;5.63;;
20397;SDS011;10358;49.590;11.030;2022-10-31T04:42:58;10.03;;;5.80;;
20397;SDS011;10358;49.590;11.030;2022-10-31T04:45:24;8.57;;;5.47;;
20397;SDS011;10358;49.590;11.030;2022-10-31T04:47:49;13.37;;;6.20;;
20397;SDS011;10358;49.590;11.030;2022-10-31T04:50:15;14.50;;;6.27;;
20397;SDS011;10358;49.590;11.030;2022-10-31T04:52:41;12.73;;;6.17;;
20397;SDS011;10358;49.590;11.030;2022-10-31T04:55:08;15.63;;;6.90;;
20397;SDS011;10358;49.590;11.030;2022-10-31T04:57:41;14.60;;;6.23;;
20397;SDS011;10358;49.590;11.030;2022-10-31T05:00:08;14.30;;;6.63;;
20397;SDS011;10358;49.590;11.030;2022-10-31T05:02:42;11.87;;;6.50;;
20397;SDS011;10358;49.590;11.030;2022-10-31T05:05:08;13.30;;;6.60;;
20397;SDS011;10358;49.590;11.030;2022-10-31T05:07:37;13.50;;;6.90;;
20397;SDS011;10358;49.590;11.030;2022-10-31T05:10:04;11.27;;;6.10;;
20397;SDS011;10358;49.590;11.030;2022-10-31T05:12:30;14.50;;;6.30;;
20397;SDS011;10358;49.590;11.030;2022-10-31T05:14:55;13.90;;;7.43;;
20397;SDS011;10358;49.590;11.030;2022-10-31T05:17:21;15.40;;;6.73;;
20397;SDS011;10358;49.590;11.030;2022-10-31T05:19:47;19.40;;;6.83;;
20397;SDS011;10358;49.590;11.030;2022-10-31T05:22:12;13.93;;;6.63;;
20397;SDS011;10358;49.590;11.030;2022-10-31T05:24:38;14.63;;;6.63;;
20397;SDS011;10358;49.590;11.030;2022-10-31T05:27:03;13.10;;;5.77;;
20397;SDS011;10358;49.590;11.030;2022-10-31T05:29:29;15.03;;;6.77;;
20397;SDS011;10358;49.590;11.030;2022-10-31T05:31:58;18.13;;;6.70;;
20397;SDS011;10358;49.590;11.030;2022-10-31T05:34:24;17.27;;;6.77;;
20397;SDS011;10358;49.590;11.030;2022-10-31T05:36:49;12.13;;;5.97;;
20397;SDS011;10358;49.590;11.030;2022-10-31T05:39:15;14.20;;;6.67;;
20397;SDS011;10358;49.590;11.030;2022-10-31T05:41:40;15.77;;;6.27;;
20397;SDS011;10358;49.590;11.030;2022-10-31T05:44:06;12.30;;;5.83;;
20397;SDS011;10358;49.590;11.030;2022-10-31T05:46:31;13.23;;;6.60;;
20397;SDS011;10358;49.590;11.030;2022-10-31T05:48:57;12.03;;;5.80;;
20397;SDS011;10358;49.590;11.030;2022-10-31T05:51:23;13.53;;;5.80;;
20397;SDS011;10358;49.590;11.030;2022-10-31T05:53:48;9.17;;;5.50;;
20397;SDS011;10358;49.590;11.030;2022-10-31T05:56:14;12.70;;;5.90;;
20397;SDS011;10358;49.590;11.030;2022-10-31T05:58:39;14.00;;;5.87;;
20397;SDS011;10358;49.590;11.030;2022-10-31T06:01:05;16.67;;;6.10;;
20397;SDS011;10358;49.590;11.030;2022-10-31T06:03:30;17.30;;;7.20;;
20397;SDS011;10358;49.590;11.030;2022-10-31T06:05:56;15.10;;;7.70;;
20397;SDS011;10358;49.590;11.030;2022-10-31T06:08:22;16.27;;;7.30;;
20397;SDS011;10358;49.590;11.030;2022-10-31T06:10:47;22.20;;;7.77;;
20397;SDS011;10358;49.590;11.030;2022-10-31T06:13:13;28.10;;;8.00;;
20397;SDS011;10358;49.590;11.030;2022-10-31T06:15:38;17.77;;;7.87;;
20397;SDS011;10358;49.590;11.030;2022-10-31T06:18:05;20.43;;;6.93;;
20397;SDS011;10358;49.590;11.030;2022-10-31T06:20:31;18.53;;;7.10;;
20397;SDS011;10358;49.590;11.030;2022-10-31T06:22:58;10.67;;;6.53;;
20397;SDS011;10358;49.590;11.030;2022-10-31T06:25:24;15.93;;;6.20;;
20397;SDS011;10358;49.590;11.030;2022-10-31T06:27:49;14.07;;;6.30;;
20397;SDS011;10358;49.590;11.030;2022-10-31T06:30:15;16.77;;;6.43;;
20397;SDS011;10358;49.590;11.030;2022-10-31T06:32:40;27.00;;;7.03;;
20397;SDS011;10358;49.590;11.030;2022-10-31T06:35:06;15.73;;;6.30;;
20397;SDS011;10358;49.590;11.030;2022-10-31T06:37:32;12.77;;;6.47;;
20397;SDS011;10358;49.590;11.030;2022-10-31T06:39:57;22.60;;;7.67;;
20397;SDS011;10358;49.590;11.030;2022-10-31T06:42:23;19.50;;;7.70;;
20397;SDS011;10358;49.590;11.030;2022-10-31T06:44:49;15.60;;;7.43;;
20397;SDS011;10358;49.590;11.030;2022-10-31T06:47:14;15.10;;;8.37;;
20397;SDS011;10358;49.590;11.030;2022-10-31T06:49:40;17.40;;;8.80;;
20397;SDS011;10358;49.590;11.030;2022-10-31T06:52:05;21.63;;;8.33;;
20397;SDS011;10358;49.590;11.030;2022-10-31T06:54:31;22.00;;;7.67;;
20397;SDS011;10358;49.590;11.030;2022-10-31T06:56:56;16.57;;;7.93;;
20397;SDS011;10358;49.590;11.030;2022-10-31T06:59:22;17.73;;;8.47;;
20397;SDS011;10358;49.590;11.030;2022-10-31T07:01:49;16.00;;;8.50;;
20397;SDS011;10358;49.590;11.030;2022-10-31T07:04:15;19.77;;;9.13;;
20397;SDS011;10358;49.590;11.030;2022-10-31T07:06:40;22.03;;;8.30;;
20397;SDS011;10358;49.590;11.030;2022-10-31T07:09:06;17.57;;;9.00;;
20397;SDS011;10358;49.590;11.030;2022-10-31T07:11:31;16.90;;;8.50;;
20397;SDS011;10358;49.590;11.030;2022-10-31T07:13:57;13.70;;;7.83;;
20397;SDS011;10358;49.590;11.030;2022-10-31T07:16:23;16.37;;;7.73;;
20397;SDS011;10358;49.590;11.030;2022-10-31T07:18:48;14.03;;;7.30;;
20397;SDS011;10358;49.590;11.030;2022-10-31T07:21:15;12.90;;;7.10;;
20397;SDS011;10358;49.590;11.030;2022-10-31T07:23:40;13.47;;;7.00;;
20397;SDS011;10358;49.590;11.030;2022-10-31T07:26:06;17.13;;;7.03;;
20397;SDS011;10358;49.590;11.030;2022-10-31T07:28:32;18.30;;;6.70;;
20397;SDS011;10358;49.590;11.030;2022-10-31T07:30:58;13.57;;;6.73;;
20397;SDS011;10358;49.590;11.030;2022-10-31T07:33:23;16.27;;;7.00;;
20397;SDS011;10358;49.590;11.030;2022-10-31T07:35:52;12.03;;;6.50;;
20397;SDS011;10358;49.590;11.030;2022-10-31T07:38:18;15.10;;;6.27;;
20397;SDS011;10358;49.590;11.030;2022-10-31T07:40:48;12.20;;;6.23;;
20397;SDS011;10358;49.590;11.030;2022-10-31T07:43:16;10.50;;;6.07;;
20397;SDS011;10358;49.590;11.030;2022-10-31T07:45:42;11.83;;;6.80;;
20397;SDS011;10358;49.590;11.030;2022-10-31T07:48:07;11.90;;;6.00;;
20397;SDS011;10358;49.590;11.030;2022-10-31T07:50:33;8.17;;;5.30;;
20397;SDS011;10358;49.590;11.030;2022-10-31T07:53:09;12.87;;;5.87;;
20397;SDS011;10358;49.590;11.030;2022-10-31T07:55:35;9.40;;;6.03;;
20397;SDS011;10358;49.590;11.030;2022-10-31T07:58:05;11.27;;;6.07;;
20397;SDS011;10358;49.590;11.030;2022-10-31T08:00:33;12.30;;;6.47;;
20397;SDS011;10358;49.590;11.030;2022-10-31T08:03:00;11.23;;;6.20;;
20397;SDS011;10358;49.590;11.030;2022-10-31T08:05:28;11.00;;;6.80;;
20397;SDS011;10358;49.590;11.030;2022-10-31T08:07:54;9.93;;;6.27;;
20397;SDS011;10358;49.590;11.030;2022-10-31T08:10:20;11.93;;;6.63;;
20397;SDS011;10358;49.590;11.030;2022-10-31T08:12:47;12.67;;;6.73;;
20397;SDS011;10358;49.590;11.030;2022-10-31T08:15:19;15.60;;;7.40;;
20397;SDS011;10358;49.590;11.030;2022-10-31T08:17:44;16.47;;;6.97;;
20397;SDS011;10358;49.590;11.030;2022-10-31T08:20:10;16.80;;;7.50;;
20397;SDS011;10358;49.590;11.030;2022-10-31T08:22:35;14.17;;;7.03;;
20397;SDS011;10358;49.590;11.030;2022-10-31T08:25:01;15.27;;;8.13;;
20397;SDS011;10358;49.590;11.030;2022-10-31T08:27:27;37.83;;;8.80;;
20397;SDS011;10358;49.590;11.030;2022-10-31T08:29:52;17.30;;;8.10;;
20397;SDS011;10358;49.590;11.030;2022-10-31T08:32:18;15.90;;;8.07;;
20397;SDS011;10358;49.590;11.030;2022-10-31T08:34:43;13.67;;;8.03;;
20397;SDS011;10358;49.590;11.030;2022-10-31T08:37:09;24.33;;;9.00;;
20397;SDS011;10358;49.590;11.030;2022-10-31T08:39:35;14.80;;;8.37;;
20397;SDS011;10358;49.590;11.030;2022-10-31T08:42:00;24.63;;;9.40;;
20397;SDS011;10358;49.590;11.030;2022-10-31T08:44:26;25.00;;;9.17;;
20397;SDS011;10358;49.590;11.030;2022-10-31T08:46:51;21.70;;;10.73;;
20397;SDS011;10358;49.590;11.030;2022-10-31T08:49:17;22.43;;;10.47;;
20397;SDS011;10358;49.590;11.030;2022-10-31T08:51:42;24.07;;;10.77;;
20397;SDS011;10358;49.590;11.030;2022-10-31T08:54:08;27.83;;;11.17;;
20397;SDS011;10358;49.590;11.030;2022-10-31T08:56:33;19.13;;;10.17;;
20397;SDS011;10358;49.590;11.030;2022-10-31T08:58:59;16.57;;;10.40;;
20397;SDS011;10358;49.590;11.030;2022-10-31T09:01:24;19.07;;;10.13;;
20397;SDS011;10358;49.590;11.030;2022-10-31T09:03:50;17.77;;;9.57;;
20397;SDS011;10358;49.590;11.030;2022-10-31T09:06:16;19.70;;;10.00;;
20397;SDS011;10358;49.590;11.030;2022-10-31T09:08:41;16.77;;;8.87;;
20397;SDS011;10358;49.590;11.030;2022-10-31T09:11:07;17.23;;;8.80;;
20397;SDS011;10358;49.590;11.030;2022-10-31T09:13:32;20.47;;;8.93;;
20397;SDS011;10358;49.590;11.030;2022-10-31T09:15:58;43.70;;;9.80;;
20397;SDS011;10358;49.590;11.030;2022-10-31T09:18:24;14.60;;;8.17;;
20397;SDS011;10358;49.590;11.030;2022-10-31T09:20:52;15.77;;;8.50;;
20397;SDS011;10358;49.590;11.030;2022-10-31T09:23:19;13.47;;;7.87;;
20397;SDS011;10358;49.590;11.030;2022-10-31T09:25:47;12.00;;;7.83;;
20397;SDS011;10358;49.590;11.030;2022-10-31T09:28:15;11.67;;;7.57;;
20397;SDS011;10358;49.590;11.030;2022-10-31T09:30:45;11.40;;;7.23;;
20397;SDS011;10358;49.590;11.030;2022-10-31T09:33:12;10.13;;;6.93;;
20397;SDS011;10358;49.590;11.030;2022-10-31T09:35:39;12.67;;;7.70;;
20397;SDS011;10358;49.590;11.030;2022-10-31T09:38:07;12.37;;;7.40;;
20397;SDS011;10358;49.590;11.030;2022-10-31T09:40:39;14.73;;;7.57;;
20397;SDS011;10358;49.590;11.030;2022-10-31T09:49:07;10.47;;;7.57;;
20397;SDS011;10358;49.590;11.030;2022-10-31T09:51:51;11.87;;;7.20;;
20397;SDS011;10358;49.590;11.030;2022-10-31T09:54:32;9.77;;;6.50;;
20397;SDS011;10358;49.590;11.030;2022-10-31T09:57:12;10.52;;;6.40;;
20397;SDS011;10358;49.590;11.030;2022-10-31T09:59:40;11.88;;;6.93;;
20397;SDS011;10358;49.590;11.030;2022-10-31T10:02:55;14.30;;;7.20;;
20397;SDS011;10358;49.590;11.030;2022-10-31T10:07:30;9.50;;;5.82;;
20397;SDS011;10358;49.590;11.030;2022-10-31T10:10:20;12.55;;;6.45;;
20397;SDS011;10358;49.590;11.030;2022-10-31T10:18:38;8.98;;;6.50;;
20397;SDS011;10358;49.590;11.030;2022-10-31T10:21:14;11.02;;;6.53;;
20397;SDS011;10358;49.590;11.030;2022-10-31T10:24:43;12.15;;;7.00;;
20397;SDS011;10358;49.590;11.030;2022-10-31T10:27:23;16.38;;;7.07;;
20397;SDS011;10358;49.590;11.030;2022-10-31T10:32:42;12.82;;;7.80;;
20397;SDS011;10358;49.590;11.030;2022-10-31T10:38:20;12.20;;;8.73;;
20397;SDS011;10358;49.590;11.030;2022-10-31T10:40:49;15.05;;;8.75;;
20397;SDS011;10358;49.590;11.030;2022-10-31T10:43:28;13.73;;;8.70;;
20397;SDS011;10358;49.590;11.030;2022-10-31T10:48:58;17.85;;;8.32;;
20397;SDS011;10358;49.590;11.030;2022-10-31T10:51:39;12.90;;;7.70;;
20397;SDS011;10358;49.590;11.030;2022-10-31T10:54:33;13.95;;;8.13;;
20397;SDS011;10358;49.590;11.030;2022-10-31T10:57:09;14.02;;;6.65;;
20397;SDS011;10358;49.590;11.030;2022-10-31T10:59:47;12.57;;;7.72;;
20397;SDS011;10358;49.590;11.030;2022-10-31T11:02:18;13.30;;;7.60;;
20397;SDS011;10358;49.590;11.030;2022-10-31T11:04:51;14.80;;;7.93;;
20397;SDS011;10358;49.590;11.030;2022-10-31T11:07:22;13.07;;;6.85;;
20397;SDS011;10358;49.590;11.030;2022-10-31T11:09:48;12.50;;;6.93;;
20397;SDS011;10358;49.590;11.030;2022-10-31T11:12:25;10.73;;;7.05;;
20397;SDS011;10358;49.590;11.030;2022-10-31T11:14:58;13.32;;;7.28;;
20397;SDS011;10358;49.590;11.030;2022-10-31T11:17:32;13.30;;;7.03;;
20397;SDS011;10358;49.590;11.030;2022-10-31T11:22:28;12.57;;;6.70;;
20397;SDS011;10358;49.590;11.030;2022-10-31T11:24:53;12.60;;;7.00;;
20397;SDS011;10358;49.590;11.030;2022-10-31T11:27:23;11.13;;;6.40;;
20397;SDS011;10358;49.590;11.030;2022-10-31T11:29:50;13.75;;;6.90;;
20397;SDS011;10358;49.590;11.030;2022-10-31T11:32:20;15.93;;;6.70;;
20397;SDS011;10358;49.590;11.030;2022-10-31T11:34:49;10.35;;;6.20;;
20397;SDS011;10358;49.590;11.030;2022-10-31T11:37:21;12.57;;;6.30;;
20397;SDS011;10358;49.590;11.030;2022-10-31T11:39:53;13.27;;;6.53;;
20397;SDS011;10358;49.590;11.030;2022-10-31T11:42:25;13.63;;;6.45;;
20397;SDS011;10358;49.590;11.030;2022-10-31T11:44:54;11.30;;;6.03;;
20397;SDS011;10358;49.590;11.030;2022-10-31T11:47:28;15.45;;;6.85;;
20397;SDS011;10358;49.590;11.030;2022-10-31T11:49:57;10.93;;;6.30;;
20397;SDS011;10358;49.590;11.030;2022-10-31T11:52:28;14.52;;;6.28;;
20397;SDS011;10358;49.590;11.030;2022-10-31T11:55:39;10.07;;;6.07;;
20397;SDS011;10358;49.590;11.030;2022-10-31T11:57:56;16.63;;;6.85;;
20397;SDS011;10358;49.590;11.030;2022-10-31T12:00:32;11.30;;;6.63;;
20397;SDS011;10358;49.590;11.030;2022-10-31T12:05:36;13.45;;;6.72;;
20397;SDS011;10358;49.590;11.030;2022-10-31T12:08:06;12.40;;;6.90;;
20397;SDS011;10358;49.590;11.030;2022-10-31T12:10:58;16.02;;;6.10;;
20397;SDS011;10358;49.590;11.030;2022-10-31T12:13:35;13.82;;;6.05;;
20397;SDS011;10358;49.590;11.030;2022-10-31T12:18:57;14.35;;;6.00;;
20397;SDS011;10358;49.590;11.030;2022-10-31T12:33:21;17.17;;;6.47;;
20397;SDS011;10358;49.590;11.030;2022-10-31T12:41:17;16.67;;;5.68;;
20397;SDS011;10358;49.590;11.030;2022-10-31T12:44:11;11.70;;;6.07;;
20397;SDS011;10358;49.590;11.030;2022-10-31T12:49:49;16.42;;;6.95;;
20397;SDS011;10358;49.590;11.030;2022-10-31T12:55:37;15.30;;;6.32;;
20397;SDS011;10358;49.590;11.030;2022-10-31T12:58:22;14.98;;;6.05;;
20397;SDS011;10358;49.590;11.030;2022-10-31T13:00:55;16.08;;;5.88;;
20397;SDS011;10358;49.590;11.030;2022-10-31T13:03:42;15.68;;;5.55;;
20397;SDS011;10358;49.590;11.030;2022-10-31T13:06:12;13.40;;;5.38;;
20397;SDS011;10358;49.590;11.030;2022-10-31T13:08:53;9.73;;;5.25;;
20397;SDS011;10358;49.590;11.030;2022-10-31T13:11:22;17.95;;;5.95;;
20397;SDS011;10358;49.590;11.030;2022-10-31T13:14:34;9.77;;;5.05;;
20397;SDS011;10358;49.590;11.030;2022-10-31T13:16:50;12.00;;;5.80;;
20397;SDS011;10358;49.590;11.030;2022-10-31T13:19:19;11.13;;;5.25;;
20397;SDS011;10358;49.590;11.030;2022-10-31T13:30:15;12.10;;;5.78;;
20397;SDS011;10358;49.590;11.030;2022-10-31T13:32:54;13.95;;;6.28;;
20397;SDS011;10358;49.590;11.030;2022-10-31T13:40:48;13.52;;;6.15;;
20397;SDS011;10358;49.590;11.030;2022-10-31T13:46:24;12.73;;;6.53;;
20397;SDS011;10358;49.590;11.030;2022-10-31T13:48:59;15.63;;;6.18;;
20397;SDS011;10358;49.590;11.030;2022-10-31T13:51:29;13.90;;;6.22;;
20397;SDS011;10358;49.590;11.030;2022-10-31T13:54:06;15.32;;;6.22;;
20397;SDS011;10358;49.590;11.030;2022-10-31T14:00:03;11.55;;;7.05;;
20397;SDS011;10358;49.590;11.030;2022-10-31T14:02:43;10.05;;;6.55;;
20397;SDS011;10358;49.590;11.030;2022-10-31T14:05:31;14.80;;;7.10;;
20397;SDS011;10358;49.590;11.030;2022-10-31T14:08:00;17.40;;;6.93;;
20397;SDS011;10358;49.590;11.030;2022-10-31T14:10:38;17.27;;;7.18;;
20397;SDS011;10358;49.590;11.030;2022-10-31T14:13:18;17.33;;;7.20;;
20397;SDS011;10358;49.590;11.030;2022-10-31T14:15:56;19.05;;;7.10;;
20397;SDS011;10358;49.590;11.030;2022-10-31T14:18:30;15.82;;;7.30;;
20397;SDS011;10358;49.590;11.030;2022-10-31T14:20:58;13.82;;;7.30;;
20397;SDS011;10358;49.590;11.030;2022-10-31T14:28:51;16.35;;;6.82;;
20397;SDS011;10358;49.590;11.030;2022-10-31T14:31:34;12.63;;;6.70;;
20397;SDS011;10358;49.590;11.030;2022-10-31T14:34:22;13.63;;;7.20;;
20397;SDS011;10358;49.590;11.030;2022-10-31T14:51:45;16.25;;;7.32;;
20397;SDS011;10358;49.590;11.030;2022-10-31T14:54:16;16.38;;;7.63;;
20397;SDS011;10358;49.590;11.030;2022-10-31T14:56:52;19.38;;;8.45;;
20397;SDS011;10358;49.590;11.030;2022-10-31T14:59:24;16.38;;;8.63;;
20397;SDS011;10358;49.590;11.030;2022-10-31T15:02:15;19.02;;;8.32;;
20397;SDS011;10358;49.590;11.030;2022-10-31T15:04:43;13.95;;;7.68;;
20397;SDS011;10358;49.590;11.030;2022-10-31T15:07:17;17.33;;;8.77;;
20397;SDS011;10358;49.590;11.030;2022-10-31T15:09:43;16.08;;;9.45;;
20397;SDS011;10358;49.590;11.030;2022-10-31T15:12:26;23.10;;;10.07;;
20397;SDS011;10358;49.590;11.030;2022-10-31T15:14:54;23.60;;;10.93;;
20397;SDS011;10358;49.590;11.030;2022-10-31T15:17:21;24.02;;;11.25;;
20397;SDS011;10358;49.590;11.030;2022-10-31T15:19:48;19.58;;;10.90;;
20397;SDS011;10358;49.590;11.030;2022-10-31T15:22:14;24.08;;;10.30;;
20397;SDS011;10358;49.590;11.030;2022-10-31T15:24:42;18.40;;;10.93;;
20397;SDS011;10358;49.590;11.030;2022-10-31T15:27:15;22.42;;;9.52;;
20397;SDS011;10358;49.590;11.030;2022-10-31T15:29:49;24.98;;;10.77;;
20397;SDS011;10358;49.590;11.030;2022-10-31T15:32:20;22.48;;;10.30;;
20397;SDS011;10358;49.590;11.030;2022-10-31T15:34:48;20.40;;;11.02;;
20397;SDS011;10358;49.590;11.030;2022-10-31T15:37:16;22.10;;;12.35;;
20397;SDS011;10358;49.590;11.030;2022-10-31T15:39:43;18.98;;;10.30;;
20397;SDS011;10358;49.590;11.030;2022-10-31T15:44:58;20.67;;;10.63;;
20397;SDS011;10358;49.590;11.030;2022-10-31T15:47:28;24.08;;;9.38;;
20397;SDS011;10358;49.590;11.030;2022-10-31T15:49:56;19.98;;;10.15;;
20397;SDS011;10358;49.590;11.030;2022-10-31T15:52:33;19.42;;;8.88;;
20397;SDS011;10358;49.590;11.030;2022-10-31T15:55:05;16.92;;;9.18;;
20397;SDS011;10358;49.590;11.030;2022-10-31T15:57:39;21.13;;;8.70;;
20397;SDS011;10358;49.590;11.030;2022-10-31T16:00:20;19.20;;;8.75;;
20397;SDS011;10358;49.590;11.030;2022-10-31T16:05:51;18.42;;;9.95;;
20397;SDS011;10358;49.590;11.030;2022-10-31T16:08:25;20.65;;;10.75;;
20397;SDS011;10358;49.590;11.030;2022-10-31T16:10:51;19.45;;;9.95;;
20397;SDS011;10358;49.590;11.030;2022-10-31T16:13:19;22.23;;;11.25;;
20397;SDS011;10358;49.590;11.030;2022-10-31T16:15:53;30.05;;;11.15;;
20397;SDS011;10358;49.590;11.030;2022-10-31T16:18:24;20.65;;;10.00;;
20397;SDS011;10358;49.590;11.030;2022-10-31T16:20:51;21.45;;;12.10;;
20397;SDS011;10358;49.590;11.030;2022-10-31T16:23:20;21.90;;;9.93;;
20397;SDS011;10358;49.590;11.030;2022-10-31T16:25:49;23.40;;;10.95;;
20397;SDS011;10358;49.590;11.030;2022-10-31T16:28:17;18.23;;;9.73;;
20397;SDS011;10358;49.590;11.030;2022-10-31T16:30:47;22.60;;;9.52;;
20397;SDS011;10358;49.590;11.030;2022-10-31T16:35:45;22.65;;;10.35;;
20397;SDS011;10358;49.590;11.030;2022-10-31T16:38:11;20.92;;;10.23;;
20397;SDS011;10358;49.590;11.030;2022-10-31T16:40:37;23.00;;;10.80;;
20397;SDS011;10358;49.590;11.030;2022-10-31T16:43:03;25.00;;;9.75;;
20397;SDS011;10358;49.590;11.030;2022-10-31T16:45:30;18.98;;;10.02;;
20397;SDS011;10358;49.590;11.030;2022-10-31T16:48:10;19.55;;;10.25;;
20397;SDS011;10358;49.590;11.030;2022-10-31T16:50:39;21.30;;;10.48;;